createdAt,value
2022-11-16T00:02:12.855Z,95
2022-11-16T00:12:12.798Z,95
2022-11-16T00:22:12.717Z,95
2022-11-16T00:32:12.703Z,95
2022-11-16T00:42:12.720Z,95
2022-11-16T00:52:12.669Z,95
2022-11-16T01:02:12.662Z,95
2022-11-16T01:12:12.682Z,95
2022-11-16T01:22:12.627Z,95
2022-11-16T01:32:12.621Z,95
2022-11-16T01:42:12.619Z,95
2022-11-16T01:52:12.636Z,95
2022-11-16T02:02:12.571Z,95
2022-11-16T02:22:12.572Z,95
2022-11-16T02:32:12.515Z,95
2022-11-16T02:42:12.504Z,95
2022-11-16T02:52:12.517Z,95
2022-11-16T03:02:12.491Z,95
2022-11-16T03:12:12.459Z,95
2022-11-16T03:22:12.484Z,95
2022-11-16T03:32:12.457Z,95
2022-11-16T03:42:12.414Z,95
2022-11-16T03:52:12.436Z,95
2022-11-16T04:02:12.394Z,95
2022-11-16T04:12:12.372Z,95
2022-11-16T04:22:12.396Z,95
2022-11-16T04:32:12.332Z,95
2022-11-16T04:42:12.327Z,95
2022-11-16T04:52:12.361Z,95
2022-11-16T05:02:12.302Z,95
2022-11-16T05:12:12.285Z,95
2022-11-16T05:22:12.324Z,95
2022-11-16T05:32:12.251Z,95
2022-11-16T05:42:12.237Z,95
2022-11-16T05:52:12.264Z,95
2022-11-16T06:02:12.211Z,95
2022-11-16T06:12:12.235Z,95
2022-11-16T06:22:12.272Z,95
2022-11-16T06:32:12.182Z,95
2022-11-16T06:42:12.198Z,95
2022-11-16T06:52:12.174Z,95
2022-11-16T07:02:12.186Z,96
2022-11-16T07:12:12.150Z,96
2022-11-16T07:22:12.160Z,96
2022-11-16T07:32:12.106Z,96
2022-11-16T07:42:12.156Z,96
2022-11-16T07:52:12.110Z,96
2022-11-16T08:02:12.133Z,96
2022-11-16T08:12:12.070Z,96
2022-11-16T08:22:12.076Z,96
2022-11-16T08:32:12.032Z,96
2022-11-16T08:42:12.029Z,96
2022-11-16T08:52:12.017Z,96
2022-11-16T09:02:12.098Z,96
2022-11-16T09:12:12.017Z,96
2022-11-16T09:22:11.981Z,97
2022-11-16T09:32:11.935Z,96
2022-11-16T09:42:11.965Z,96
2022-11-16T09:52:11.944Z,97
2022-11-16T10:02:11.899Z,97
2022-11-16T10:12:11.899Z,97
2022-11-16T10:22:11.896Z,96
2022-11-16T10:32:11.830Z,95
2022-11-16T10:42:11.858Z,94
2022-11-16T10:52:11.795Z,93
2022-11-16T11:02:11.760Z,93
2022-11-16T11:12:11.782Z,93
2022-11-16T11:22:11.743Z,92
2022-11-16T11:32:11.727Z,92
2022-11-16T11:42:11.757Z,91
2022-11-16T11:52:11.672Z,91
2022-11-16T12:02:11.654Z,91
2022-11-16T12:12:14.612Z,90
2022-11-16T12:22:11.621Z,90
2022-11-16T12:32:11.621Z,90
2022-11-16T12:42:11.659Z,90
2022-11-16T12:52:11.562Z,91
2022-11-16T13:02:11.535Z,91
2022-11-16T13:12:11.795Z,92
2022-11-16T13:22:11.504Z,91
2022-11-16T13:32:11.481Z,90
2022-11-16T13:42:11.505Z,90
2022-11-16T13:52:23.657Z,89
2022-11-16T14:02:11.423Z,88
2022-11-16T14:12:11.453Z,87
2022-11-16T14:22:11.400Z,87
2022-11-16T14:32:11.370Z,86
2022-11-16T14:42:11.384Z,86
2022-11-16T14:52:11.330Z,85
2022-11-16T15:02:11.346Z,85
2022-11-16T15:12:11.308Z,84
2022-11-16T15:22:11.286Z,84
2022-11-16T15:32:11.284Z,84
2022-11-16T15:42:11.231Z,84
2022-11-16T15:52:11.234Z,84
2022-11-16T16:02:11.176Z,85
2022-11-16T16:12:11.179Z,85
2022-11-16T16:22:11.203Z,85
2022-11-16T16:32:11.146Z,85
2022-11-16T16:42:11.125Z,85
2022-11-16T16:52:11.168Z,86
2022-11-16T17:02:11.095Z,86
2022-11-16T17:12:11.126Z,86
2022-11-16T17:22:11.096Z,86
2022-11-16T17:32:11.046Z,86
2022-11-16T17:42:11.047Z,86
2022-11-16T17:52:11.040Z,87
2022-11-16T18:02:11.015Z,87
2022-11-16T18:12:11.021Z,87
2022-11-16T18:22:11.032Z,87
2022-11-16T18:32:10.967Z,87
2022-11-16T18:42:10.955Z,87
2022-11-16T18:52:10.976Z,88
2022-11-16T19:02:10.925Z,88
2022-11-16T19:12:10.909Z,88
2022-11-16T19:22:10.981Z,88
2022-11-16T19:32:10.881Z,88
2022-11-16T19:42:10.881Z,88
2022-11-16T19:52:10.879Z,88
2022-11-16T20:02:10.846Z,89
2022-11-16T20:12:10.853Z,89
2022-11-16T20:22:10.837Z,89
2022-11-16T20:32:10.797Z,89
2022-11-16T20:42:10.814Z,89
2022-11-16T20:52:10.807Z,89
2022-11-16T21:02:10.773Z,89
2022-11-16T21:12:10.766Z,89
2022-11-16T21:22:10.761Z,89
2022-11-16T21:32:10.722Z,89
2022-11-16T21:42:10.735Z,89
2022-11-16T21:52:10.713Z,89
2022-11-16T22:02:10.678Z,89
2022-11-16T22:12:10.689Z,89
2022-11-16T22:22:10.679Z,89
2022-11-16T22:32:10.749Z,89
2022-11-16T22:42:10.670Z,89
2022-11-16T22:52:10.643Z,90
2022-11-16T23:02:10.601Z,90
2022-11-16T23:12:10.613Z,90
2022-11-16T23:22:10.597Z,90
2022-11-16T23:32:10.701Z,90
2022-11-16T23:42:10.557Z,90
2022-11-16T23:52:10.556Z,90
